Time;durP1;ratioP1;P1;durP2;ratioP2;P2;SDS_P1;SDS_P2;PMS_P1;PMS_P2;Temp;Humidity;BMP_temperature;BMP_pressure;BME280_temperature;BME280_humidity;BME280_pressure;Samples;Min_cycle;Max_cycle;Signal;HPM_P1;HPM_P2
2021/01/11 00:00:23;;;;;;;18.45;12.55;;;;;;;;;;5053958;28;20282;-78
2021/01/11 00:02:49;;;;;;;15.20;11.27;;;;;;;;;;5053599;28;20256;-81
2021/01/11 00:05:15;;;;;;;16.88;11.52;;;;;;;;;;5053361;28;20262;-82
2021/01/11 00:07:41;;;;;;;17.50;11.43;;;;;;;;;;5053390;28;20634;-81
2021/01/11 00:10:08;;;;;;;21.02;12.25;;;;;;;;;;5052756;28;20409;-82
2021/01/11 00:15:38;;;;;;;17.90;12.18;;;;;;;;;;5053228;28;20266;-82
2021/01/11 00:18:04;;;;;;;15.30;11.63;;;;;;;;;;5053094;28;20178;-81
2021/01/11 00:20:30;;;;;;;17.90;11.23;;;;;;;;;;5053258;28;20424;-82
2021/01/11 00:22:55;;;;;;;17.80;12.60;;;;;;;;;;5051931;28;20212;-82
2021/01/11 00:25:21;;;;;;;18.47;11.50;;;;;;;;;;5053028;28;20762;-81
2021/01/11 00:27:47;;;;;;;19.13;12.40;;;;;;;;;;5052964;28;20450;-82
2021/01/11 00:30:14;;;;;;;20.85;12.07;;;;;;;;;;5053355;28;20800;-82
2021/01/11 00:32:40;;;;;;;18.38;12.55;;;;;;;;;;5052970;28;20168;-81
2021/01/11 00:35:07;;;;;;;19.23;12.25;;;;;;;;;;5052532;28;20313;-81
2021/01/11 00:37:33;;;;;;;21.10;12.88;;;;;;;;;;5052604;28;20648;-82
2021/01/11 00:39:59;;;;;;;18.27;12.10;;;;;;;;;;5053117;28;20538;-81
2021/01/11 00:45:29;;;;;;;25.40;13.77;;;;;;;;;;5052545;28;20196;-80
2021/01/11 00:47:55;;;;;;;17.97;12.10;;;;;;;;;;5052908;28;20174;-82
2021/01/11 00:50:21;;;;;;;19.40;11.87;;;;;;;;;;5052820;28;20502;-81
2021/01/11 00:52:47;;;;;;;19.60;12.30;;;;;;;;;;5052861;28;20418;-83
2021/01/11 00:55:13;;;;;;;19.73;11.90;;;;;;;;;;5052556;28;20211;-81
2021/01/11 01:00:42;;;;;;;17.08;11.07;;;;;;;;;;5053045;28;20183;-82
2021/01/11 01:03:08;;;;;;;18.05;12.18;;;;;;;;;;5052498;28;20171;-80
2021/01/11 01:05:34;;;;;;;18.23;10.67;;;;;;;;;;5052418;28;20200;-80
2021/01/11 01:08:01;;;;;;;20.33;12.48;;;;;;;;;;5052597;28;20404;-80
2021/01/11 01:10:27;;;;;;;19.70;13.00;;;;;;;;;;5052790;28;20499;-81
2021/01/11 01:15:56;;;;;;;15.70;11.98;;;;;;;;;;5052551;28;20506;-81
2021/01/11 01:18:22;;;;;;;15.00;11.37;;;;;;;;;;5052504;28;20523;-80
2021/01/11 01:20:48;;;;;;;16.93;11.47;;;;;;;;;;5052338;28;20455;-80
2021/01/11 01:23:14;;;;;;;17.10;11.93;;;;;;;;;;5052499;28;20436;-82
2021/01/11 01:25:40;;;;;;;15.57;11.33;;;;;;;;;;5051057;28;20176;-81
2021/01/11 01:31:09;;;;;;;19.10;13.00;;;;;;;;;;5052315;28;20475;-77
2021/01/11 01:33:35;;;;;;;17.43;11.57;;;;;;;;;;5052221;28;20165;-83
2021/01/11 01:36:01;;;;;;;19.70;12.80;;;;;;;;;;5052115;28;20502;-78
2021/01/11 01:38:28;;;;;;;20.50;11.77;;;;;;;;;;5052033;28;20497;-80
2021/01/11 01:40:54;;;;;;;16.73;11.60;;;;;;;;;;5052211;28;20415;-80
2021/01/11 01:43:20;;;;;;;16.95;10.95;;;;;;;;;;5052476;28;20523;-82
2021/01/11 01:45:46;;;;;;;19.50;13.10;;;;;;;;;;5052132;28;20246;-81
2021/01/11 01:48:12;;;;;;;19.87;12.90;;;;;;;;;;5051972;28;20174;-80
2021/01/11 01:50:39;;;;;;;16.73;11.27;;;;;;;;;;5051974;28;20525;-77
2021/01/11 01:53:05;;;;;;;17.83;11.60;;;;;;;;;;5052001;28;20165;-81
2021/01/11 01:55:31;;;;;;;18.80;12.30;;;;;;;;;;5053476;28;20615;-80
2021/01/11 02:01:01;;;;;;;14.68;9.90;;;;;;;;;;5056345;28;20255;-77
2021/01/11 02:03:27;;;;;;;14.80;10.60;;;;;;;;;;5055907;28;20177;-77
2021/01/11 02:05:53;;;;;;;19.50;12.63;;;;;;;;;;5056161;28;20495;-79
2021/01/11 02:08:33;;;;;;;14.85;11.00;;;;;;;;;;5055900;28;20548;-81
2021/01/11 02:17:07;;;;;;;19.35;11.13;;;;;;;;;;5056100;28;20180;-76
2021/01/11 02:19:43;;;;;;;16.17;11.13;;;;;;;;;;5055488;28;20177;-76
2021/01/11 02:22:09;;;;;;;20.65;12.05;;;;;;;;;;5055647;28;20526;-77
2021/01/11 02:24:38;;;;;;;19.07;10.10;;;;;;;;;;5055537;28;20177;-81
2021/01/11 02:27:04;;;;;;;23.95;13.40;;;;;;;;;;5054317;28;20450;-80
2021/01/11 02:29:49;;;;;;;15.83;10.60;;;;;;;;;;5055761;28;20174;-77
2021/01/11 02:32:15;;;;;;;20.00;11.77;;;;;;;;;;5055725;28;20909;-79
2021/01/11 02:34:41;;;;;;;20.33;13.45;;;;;;;;;;5056203;28;20232;-78
2021/01/11 02:37:08;;;;;;;22.27;13.85;;;;;;;;;;5055706;28;20195;-80
2021/01/11 02:39:34;;;;;;;19.90;12.98;;;;;;;;;;5054573;28;20181;-78
2021/01/11 02:42:00;;;;;;;18.10;12.67;;;;;;;;;;5055519;28;20183;-78
2021/01/11 02:44:26;;;;;;;18.63;13.02;;;;;;;;;;5055358;28;20508;-79
2021/01/11 02:46:52;;;;;;;19.70;12.65;;;;;;;;;;5055203;28;20244;-80
2021/01/11 02:49:25;;;;;;;18.17;11.37;;;;;;;;;;5055342;28;20179;-80
2021/01/11 02:51:57;;;;;;;21.58;14.60;;;;;;;;;;5055749;28;20498;-77
2021/01/11 02:54:28;;;;;;;17.23;11.52;;;;;;;;;;5055440;28;20216;-77
2021/01/11 02:57:02;;;;;;;23.10;15.25;;;;;;;;;;5055191;28;20173;-80
2021/01/11 02:59:31;;;;;;;24.98;14.05;;;;;;;;;;5055122;28;20175;-78
2021/01/11 03:02:00;;;;;;;17.77;13.20;;;;;;;;;;5055301;28;20217;-80
2021/01/11 03:04:26;;;;;;;20.27;11.82;;;;;;;;;;5054872;28;20173;-82
2021/01/11 03:06:56;;;;;;;21.42;12.30;;;;;;;;;;5054272;28;20171;-81
2021/01/11 03:09:22;;;;;;;23.35;12.68;;;;;;;;;;5055085;28;20172;-81
2021/01/11 03:11:48;;;;;;;21.98;14.15;;;;;;;;;;5054960;28;20203;-81
2021/01/11 03:14:14;;;;;;;19.55;13.13;;;;;;;;;;5054467;28;20607;-80
2021/01/11 03:16:40;;;;;;;22.35;13.90;;;;;;;;;;5054541;28;20169;-82
2021/01/11 03:19:06;;;;;;;24.00;13.87;;;;;;;;;;5054452;28;20176;-80
2021/01/11 03:21:33;;;;;;;22.33;14.63;;;;;;;;;;5054704;28;20416;-81
2021/01/11 03:23:59;;;;;;;21.80;14.00;;;;;;;;;;5054446;28;20192;-80
2021/01/11 03:26:25;;;;;;;19.90;14.38;;;;;;;;;;5054341;28;20172;-81
2021/01/11 03:31:54;;;;;;;18.52;13.00;;;;;;;;;;5054581;28;20265;-80
2021/01/11 03:34:20;;;;;;;19.25;13.68;;;;;;;;;;5053888;28;20164;-79
2021/01/11 03:36:47;;;;;;;27.70;13.02;;;;;;;;;;5054004;28;20184;-81
2021/01/11 03:39:13;;;;;;;22.75;12.93;;;;;;;;;;5054273;28;20255;-81
2021/01/11 03:41:40;;;;;;;18.67;12.73;;;;;;;;;;5053871;28;20605;-80
2021/01/11 03:44:07;;;;;;;21.45;13.68;;;;;;;;;;5053855;28;20472;-81
2021/01/11 03:46:33;;;;;;;21.77;11.90;;;;;;;;;;5053598;28;20230;-78
2021/01/11 03:48:59;;;;;;;20.60;13.07;;;;;;;;;;5053830;28;20172;-77
2021/01/11 03:51:25;;;;;;;17.90;12.95;;;;;;;;;;5053889;28;20415;-81
2021/01/11 03:53:51;;;;;;;19.60;13.10;;;;;;;;;;5053922;28;20678;-78
2021/01/11 03:56:18;;;;;;;21.20;12.95;;;;;;;;;;5053905;28;20265;-80
2021/01/11 04:01:47;;;;;;;22.50;12.18;;;;;;;;;;5053909;28;20171;-80
2021/01/11 04:04:13;;;;;;;14.43;10.95;;;;;;;;;;5053698;28;20177;-80
2021/01/11 04:06:39;;;;;;;16.40;11.30;;;;;;;;;;5053695;28;20160;-79
2021/01/11 04:09:05;;;;;;;17.77;12.10;;;;;;;;;;5053668;28;20177;-81
2021/01/11 04:11:31;;;;;;;21.27;12.60;;;;;;;;;;5053599;28;20411;-81
2021/01/11 04:17:01;;;;;;;22.92;9.80;;;;;;;;;;5053433;28;20486;-81
2021/01/11 04:19:27;;;;;;;18.57;11.33;;;;;;;;;;5052249;28;20651;-82
2021/01/11 04:21:53;;;;;;;18.98;10.77;;;;;;;;;;5053605;28;20469;-80
2021/01/11 04:24:19;;;;;;;19.95;10.70;;;;;;;;;;5051835;28;20172;-79
2021/01/11 04:26:45;;;;;;;15.43;10.70;;;;;;;;;;5053199;28;20176;-81
2021/01/11 04:32:14;;;;;;;20.65;10.30;;;;;;;;;;5054275;28;20452;-80
2021/01/11 04:34:40;;;;;;;16.90;10.27;;;;;;;;;;5053102;28;20630;-81
2021/01/11 04:37:10;;;;;;;17.13;9.90;;;;;;;;;;5053150;28;20183;-81
2021/01/11 04:39:36;;;;;;;14.52;9.52;;;;;;;;;;5052135;28;20506;-80
2021/01/11 04:42:05;;;;;;;17.25;9.73;;;;;;;;;;5051563;28;20208;-81
2021/01/11 04:44:31;;;;;;;19.60;11.60;;;;;;;;;;5052146;28;20252;-81
2021/01/11 04:46:57;;;;;;;12.80;10.02;;;;;;;;;;5052154;28;20172;-80
2021/01/11 04:49:25;;;;;;;14.88;9.60;;;;;;;;;;5052302;28;20288;-81
2021/01/11 04:51:51;;;;;;;18.27;9.95;;;;;;;;;;5052883;28;20549;-78
2021/01/11 04:54:21;;;;;;;20.48;11.02;;;;;;;;;;5052722;28;20534;-81
2021/01/11 04:56:48;;;;;;;16.85;9.80;;;;;;;;;;5052972;28;20222;-79
2021/01/11 05:02:21;;;;;;;19.40;12.30;;;;;;;;;;5052907;28;20255;-81
2021/01/11 05:04:47;;;;;;;16.13;10.95;;;;;;;;;;5052769;28;20165;-81
2021/01/11 05:07:16;;;;;;;14.90;10.18;;;;;;;;;;5052974;28;20180;-82
2021/01/11 05:09:44;;;;;;;14.05;9.50;;;;;;;;;;5052479;28;20582;-82
2021/01/11 05:12:12;;;;;;;14.88;9.40;;;;;;;;;;5052728;28;20169;-80
2021/01/11 05:14:38;;;;;;;15.45;10.25;;;;;;;;;;5052412;28;20205;-81
2021/01/11 05:17:04;;;;;;;22.47;12.27;;;;;;;;;;5052521;28;20184;-82
2021/01/11 05:19:30;;;;;;;16.13;10.88;;;;;;;;;;5052300;28;20423;-81
2021/01/11 05:21:56;;;;;;;16.15;11.50;;;;;;;;;;5052852;28;20530;-82
2021/01/11 05:24:39;;;;;;;21.92;12.32;;;;;;;;;;5052369;28;20274;-80
2021/01/11 05:27:06;;;;;;;20.20;11.52;;;;;;;;;;5052687;28;20206;-81
2021/01/11 05:32:36;;;;;;;18.60;13.05;;;;;;;;;;5052646;28;20183;-81
2021/01/11 05:35:02;;;;;;;18.92;13.60;;;;;;;;;;5051692;28;20236;-79
2021/01/11 05:37:31;;;;;;;18.15;11.88;;;;;;;;;;5052121;28;20175;-81
2021/01/11 05:40:14;;;;;;;20.55;11.50;;;;;;;;;;5051491;28;20618;-80
2021/01/11 05:42:40;;;;;;;18.10;11.95;;;;;;;;;;5052052;28;20556;-81
2021/01/11 05:45:10;;;;;;;21.33;12.32;;;;;;;;;;5052161;28;20513;-82
2021/01/11 05:47:52;;;;;;;19.00;11.57;;;;;;;;;;5052435;28;20310;-79
2021/01/11 05:50:18;;;;;;;26.27;13.25;;;;;;;;;;5052070;28;20191;-79
2021/01/11 05:52:45;;;;;;;24.35;13.10;;;;;;;;;;5052166;28;20192;-82
2021/01/11 05:55:20;;;;;;;25.00;15.55;;;;;;;;;;5051936;28;20203;-82
2021/01/11 05:57:53;;;;;;;29.60;14.30;;;;;;;;;;5052416;28;20172;-81
2021/01/11 06:00:19;;;;;;;18.63;13.25;;;;;;;;;;5052274;28;20183;-81
2021/01/11 06:02:45;;;;;;;21.45;13.07;;;;;;;;;;5052137;28;20244;-80
2021/01/11 06:05:12;;;;;;;21.10;13.23;;;;;;;;;;5051999;28;20616;-81
2021/01/11 06:07:38;;;;;;;18.20;11.48;;;;;;;;;;5052020;28;20411;-80
2021/01/11 06:10:05;;;;;;;17.50;11.20;;;;;;;;;;5052107;28;20169;-78
2021/01/11 06:12:32;;;;;;;20.90;12.50;;;;;;;;;;5051956;28;20165;-81
2021/01/11 06:14:58;;;;;;;22.13;12.15;;;;;;;;;;5051877;28;20228;-79
2021/01/11 06:17:24;;;;;;;18.42;12.43;;;;;;;;;;5051526;28;20242;-79
2021/01/11 06:19:50;;;;;;;16.20;11.30;;;;;;;;;;5051863;28;20623;-78
2021/01/11 06:22:18;;;;;;;18.13;11.43;;;;;;;;;;5052140;28;20425;-79
2021/01/11 06:24:44;;;;;;;20.20;12.50;;;;;;;;;;5051458;28;20168;-80
2021/01/11 06:27:16;;;;;;;22.00;12.37;;;;;;;;;;5051922;28;20169;-82
2021/01/11 06:32:46;;;;;;;35.25;15.35;;;;;;;;;;5055538;28;20191;-82
2021/01/11 06:35:12;;;;;;;22.58;13.60;;;;;;;;;;5051120;28;20248;-79
2021/01/11 06:37:38;;;;;;;22.23;12.40;;;;;;;;;;5051820;28;20165;-83
2021/01/11 06:40:08;;;;;;;17.75;12.52;;;;;;;;;;5051563;28;20473;-77
2021/01/11 06:42:34;;;;;;;20.52;13.50;;;;;;;;;;5053159;28;20194;-78
2021/01/11 06:48:05;;;;;;;19.95;13.80;;;;;;;;;;5055330;28;20634;-83
2021/01/11 06:50:32;;;;;;;21.40;12.82;;;;;;;;;;5054557;28;20181;-80
2021/01/11 06:53:01;;;;;;;24.08;13.63;;;;;;;;;;5055041;28;20572;-81
2021/01/11 06:55:27;;;;;;;18.38;11.88;;;;;;;;;;5055032;28;20598;-87
2021/01/11 06:58:00;;;;;;;19.23;11.13;;;;;;;;;;5053742;28;20187;-82
2021/01/11 07:00:31;;;;;;;18.50;12.60;;;;;;;;;;5054750;28;20176;-85
2021/01/11 07:02:57;;;;;;;21.65;13.25;;;;;;;;;;5056878;28;20173;-80
2021/01/11 07:05:35;;;;;;;18.02;12.32;;;;;;;;;;5055528;28;20634;-77
2021/01/11 07:08:02;;;;;;;17.42;11.52;;;;;;;;;;5054678;28;20298;-80
2021/01/11 07:10:28;;;;;;;18.48;10.00;;;;;;;;;;5054967;28;20176;-81
2021/01/11 07:19:02;;;;;;;17.35;11.60;;;;;;;;;;5055577;28;20166;-84
2021/01/11 07:21:28;;;;;;;25.75;13.68;;;;;;;;;;5055447;28;20169;-84
2021/01/11 07:23:56;;;;;;;19.02;11.95;;;;;;;;;;5055911;28;20184;-82
2021/01/11 07:26:23;;;;;;;25.10;14.55;;;;;;;;;;5054901;28;20165;-81
2021/01/11 07:28:49;;;;;;;19.63;12.18;;;;;;;;;;5054995;28;20172;-83
2021/01/11 07:31:23;;;;;;;23.17;12.57;;;;;;;;;;5054887;28;20642;-80
2021/01/11 07:33:52;;;;;;;25.08;13.50;;;;;;;;;;5055300;28;20175;-82
2021/01/11 07:36:22;;;;;;;20.73;12.38;;;;;;;;;;5055242;28;20228;-82
2021/01/11 07:38:48;;;;;;;21.20;12.00;;;;;;;;;;5054740;28;20522;-84
2021/01/11 07:41:24;;;;;;;19.90;12.52;;;;;;;;;;5054825;28;20172;-84
2021/01/11 07:43:50;;;;;;;18.50;11.73;;;;;;;;;;5055031;28;20472;-83
2021/01/11 07:46:21;;;;;;;21.17;12.27;;;;;;;;;;5054779;28;20161;-83
2021/01/11 07:48:47;;;;;;;19.95;11.85;;;;;;;;;;5054772;28;20172;-85
2021/01/11 07:51:13;;;;;;;19.55;13.05;;;;;;;;;;5054633;28;20178;-81
2021/01/11 07:53:40;;;;;;;18.15;12.30;;;;;;;;;;5054446;28;20184;-83
2021/01/11 07:56:07;;;;;;;18.25;11.55;;;;;;;;;;5056424;28;20211;-82
2021/01/11 07:58:33;;;;;;;21.98;12.57;;;;;;;;;;5056122;28;20173;-83
2021/01/11 08:01:05;;;;;;;18.45;11.25;;;;;;;;;;5052746;28;20263;-78
2021/01/11 08:03:32;;;;;;;22.52;12.43;;;;;;;;;;5053253;28;20227;-79
2021/01/11 08:06:02;;;;;;;16.05;11.40;;;;;;;;;;5053144;28;20166;-75
2021/01/11 08:08:30;;;;;;;20.48;12.82;;;;;;;;;;5054050;28;20173;-78
2021/01/11 08:10:58;;;;;;;21.15;13.40;;;;;;;;;;5053166;28;20184;-76
2021/01/11 08:13:24;;;;;;;19.60;11.70;;;;;;;;;;5053411;28;20223;-85
2021/01/11 08:18:53;;;;;;;19.65;13.77;;;;;;;;;;5053516;28;20625;-75
2021/01/11 08:21:20;;;;;;;22.02;12.82;;;;;;;;;;5053452;28;20214;-77
2021/01/11 08:23:46;;;;;;;20.10;12.07;;;;;;;;;;5052854;28;20243;-75
2021/01/11 08:26:12;;;;;;;22.02;11.90;;;;;;;;;;5052216;28;20168;-82
2021/01/11 08:34:27;;;;;;;20.23;12.05;;;;;;;;;;5052333;28;20301;-77
2021/01/11 08:36:53;;;;;;;23.02;12.35;;;;;;;;;;5053708;28;20234;-79
2021/01/11 08:39:19;;;;;;;24.40;11.93;;;;;;;;;;5052391;28;20175;-77
2021/01/11 08:41:53;;;;;;;21.63;11.07;;;;;;;;;;5052676;28;20430;-75
2021/01/11 08:44:28;;;;;;;16.80;10.70;;;;;;;;;;5052379;28;20164;-77
2021/01/11 08:47:00;;;;;;;21.42;9.25;;;;;;;;;;5051803;28;20182;-78
2021/01/11 08:49:26;;;;;;;27.30;11.43;;;;;;;;;;5051979;28;20239;-75
2021/01/11 08:51:53;;;;;;;21.00;12.23;;;;;;;;;;5051980;28;20183;-78
2021/01/11 08:54:25;;;;;;;18.10;11.38;;;;;;;;;;5050489;28;20729;-78
2021/01/11 08:56:53;;;;;;;19.40;10.88;;;;;;;;;;5051930;28;20510;-77
2021/01/11 08:59:19;;;;;;;12.02;9.13;;;;;;;;;;5052149;28;20256;-78
2021/01/11 09:01:45;;;;;;;19.60;11.95;;;;;;;;;;5051843;28;20188;-79
2021/01/11 09:04:12;;;;;;;19.33;11.07;;;;;;;;;;5050664;28;20509;-76
2021/01/11 09:06:47;;;;;;;18.48;10.98;;;;;;;;;;5051143;28;20164;-81
2021/01/11 09:09:17;;;;;;;18.23;10.10;;;;;;;;;;5051795;28;20233;-75
2021/01/11 09:11:44;;;;;;;15.23;10.73;;;;;;;;;;5051639;28;20181;-77
2021/01/11 09:14:12;;;;;;;18.00;10.90;;;;;;;;;;5051650;28;20603;-77
2021/01/11 09:16:39;;;;;;;17.45;13.25;;;;;;;;;;5051828;28;20226;-84
2021/01/11 09:19:06;;;;;;;20.50;11.10;;;;;;;;;;5051943;28;20223;-83
2021/01/11 09:21:32;;;;;;;17.77;10.68;;;;;;;;;;5051895;28;20509;-78
2021/01/11 09:23:58;;;;;;;17.08;10.00;;;;;;;;;;5051943;28;20230;-83
2021/01/11 09:26:24;;;;;;;19.20;12.52;;;;;;;;;;5051754;28;20173;-81
2021/01/11 09:28:50;;;;;;;21.52;11.02;;;;;;;;;;5053076;28;20200;-80
2021/01/11 09:34:19;;;;;;;21.48;10.63;;;;;;;;;;5051836;28;20433;-79
2021/01/11 09:36:46;;;;;;;14.13;10.93;;;;;;;;;;5051769;28;20176;-77
2021/01/11 09:39:13;;;;;;;21.05;9.98;;;;;;;;;;5051722;28;20173;-78
2021/01/11 09:41:40;;;;;;;14.57;11.38;;;;;;;;;;5050991;28;20161;-80
2021/01/11 09:44:06;;;;;;;17.45;11.35;;;;;;;;;;5051152;28;20583;-79
2021/01/11 09:49:36;;;;;;;17.85;11.05;;;;;;;;;;5051089;28;20163;-76
2021/01/11 09:52:02;;;;;;;21.75;11.77;;;;;;;;;;5050907;28;20168;-79
2021/01/11 09:54:28;;;;;;;11.93;8.35;;;;;;;;;;5051421;28;20172;-79
2021/01/11 09:56:57;;;;;;;15.60;11.13;;;;;;;;;;5051061;28;20255;-78
2021/01/11 09:59:23;;;;;;;16.67;9.77;;;;;;;;;;5050732;28;20176;-77
2021/01/11 10:01:49;;;;;;;18.77;10.07;;;;;;;;;;5050849;28;20183;-78
2021/01/11 10:04:16;;;;;;;11.70;9.32;;;;;;;;;;5050661;28;20176;-74
2021/01/11 10:06:44;;;;;;;13.23;8.95;;;;;;;;;;5050782;28;20158;-77
2021/01/11 10:09:10;;;;;;;16.42;11.15;;;;;;;;;;5050923;28;20169;-78
2021/01/11 10:11:37;;;;;;;14.35;9.27;;;;;;;;;;5049702;28;20640;-79
2021/01/11 10:14:03;;;;;;;15.98;10.95;;;;;;;;;;5051238;28;20177;-78
2021/01/11 10:19:32;;;;;;;20.05;11.23;;;;;;;;;;5053714;28;20236;-81
2021/01/11 10:21:59;;;;;;;18.10;11.10;;;;;;;;;;5053883;28;20173;-75
2021/01/11 10:24:25;;;;;;;15.65;9.73;;;;;;;;;;5052610;28;20180;-81
2021/01/11 10:26:52;;;;;;;17.27;9.80;;;;;;;;;;5053752;28;20174;-79
2021/01/11 10:29:20;;;;;;;19.50;10.45;;;;;;;;;;5053827;28;20196;-79
2021/01/11 10:34:49;;;;;;;13.50;7.97;;;;;;;;;;5053703;28;20381;-86
2021/01/11 10:37:15;;;;;;;12.53;8.87;;;;;;;;;;5053769;28;20230;-83
2021/01/11 10:39:41;;;;;;;16.48;9.80;;;;;;;;;;5053663;28;20429;-79
2021/01/11 10:42:07;;;;;;;15.38;10.10;;;;;;;;;;5053064;28;20235;-75
2021/01/11 10:44:34;;;;;;;14.98;9.50;;;;;;;;;;5053582;28;20166;-79
2021/01/11 10:50:04;;;;;;;14.00;10.68;;;;;;;;;;5053382;28;20186;-75
2021/01/11 10:52:30;;;;;;;14.82;9.00;;;;;;;;;;5053355;28;20181;-80
2021/01/11 10:54:56;;;;;;;17.17;10.18;;;;;;;;;;5053153;28;20531;-75
2021/01/11 10:57:22;;;;;;;11.63;7.82;;;;;;;;;;5053327;28;20172;-74
2021/01/11 10:59:48;;;;;;;13.88;8.65;;;;;;;;;;5053020;28;20173;-76
2021/01/11 11:02:14;;;;;;;8.13;5.50;;;;;;;;;;5053020;28;20620;-74
2021/01/11 11:04:40;;;;;;;14.98;8.98;;;;;;;;;;5051869;28;20413;-76
2021/01/11 11:07:06;;;;;;;14.13;10.07;;;;;;;;;;5051891;28;20647;-76
2021/01/11 11:09:32;;;;;;;14.65;9.27;;;;;;;;;;5051964;28;20896;-78
2021/01/11 11:11:58;;;;;;;13.33;9.37;;;;;;;;;;5050666;28;20194;-77
2021/01/11 11:14:24;;;;;;;13.15;8.15;;;;;;;;;;5052650;28;20422;-74
2021/01/11 11:19:53;;;;;;;11.95;8.50;;;;;;;;;;5052845;28;20532;-78
2021/01/11 11:22:19;;;;;;;12.37;8.07;;;;;;;;;;5052907;28;20164;-77
2021/01/11 11:24:45;;;;;;;15.53;9.00;;;;;;;;;;5052414;28;20817;-76
2021/01/11 11:27:11;;;;;;;13.30;8.87;;;;;;;;;;5051941;28;20449;-82
2021/01/11 11:29:37;;;;;;;14.80;9.50;;;;;;;;;;5052131;28;20453;-77
2021/01/11 11:35:07;;;;;;;15.23;9.55;;;;;;;;;;5052197;28;21191;-77
2021/01/11 11:37:34;;;;;;;13.63;8.10;;;;;;;;;;5052038;28;20176;-75
2021/01/11 11:40:00;;;;;;;11.98;8.88;;;;;;;;;;5052488;28;20172;-79
2021/01/11 11:42:26;;;;;;;12.65;8.77;;;;;;;;;;5051894;28;20269;-76
2021/01/11 11:44:52;;;;;;;11.82;9.57;;;;;;;;;;5052095;28;20165;-76
2021/01/11 11:50:21;;;;;;;10.38;8.23;;;;;;;;;;5052421;28;20255;-76
2021/01/11 11:52:47;;;;;;;11.37;7.60;;;;;;;;;;5051778;28;20610;-81
2021/01/11 11:55:14;;;;;;;10.90;9.40;;;;;;;;;;5053266;28;20475;-78
2021/01/11 11:57:41;;;;;;;14.27;9.55;;;;;;;;;;5053556;28;20410;-77
2021/01/11 12:00:09;;;;;;;12.35;9.75;;;;;;;;;;5053713;28;20245;-76
2021/01/11 12:05:39;;;;;;;10.68;7.72;;;;;;;;;;5053911;28;20190;-77
2021/01/11 12:08:05;;;;;;;12.40;8.13;;;;;;;;;;5053009;28;20172;-78
2021/01/11 12:10:31;;;;;;;11.20;7.70;;;;;;;;;;5052120;28;20188;-79
2021/01/11 12:12:57;;;;;;;12.07;8.60;;;;;;;;;;5053027;28;20433;-79
2021/01/11 12:15:23;;;;;;;10.63;8.37;;;;;;;;;;5052990;28;20462;-80
2021/01/11 12:20:53;;;;;;;11.03;9.23;;;;;;;;;;5053327;28;20983;-78
2021/01/11 12:23:19;;;;;;;13.43;8.93;;;;;;;;;;5052715;28;20493;-77
2021/01/11 12:25:45;;;;;;;10.60;9.27;;;;;;;;;;5052929;28;20410;-75
2021/01/11 12:28:11;;;;;;;10.00;8.90;;;;;;;;;;5050450;28;20411;-77
2021/01/11 12:30:37;;;;;;;11.10;9.17;;;;;;;;;;5051178;28;20411;-83
2021/01/11 12:36:06;;;;;;;10.70;9.23;;;;;;;;;;5052476;28;20841;-83
2021/01/11 12:38:32;;;;;;;9.67;8.73;;;;;;;;;;5051147;28;20845;-79
2021/01/11 12:40:58;;;;;;;11.50;10.30;;;;;;;;;;5050872;28;20458;-83
2021/01/11 12:43:24;;;;;;;11.40;9.67;;;;;;;;;;5051329;28;20410;-81
2021/01/11 12:45:50;;;;;;;9.17;8.10;;;;;;;;;;5051199;28;20418;-76
2021/01/11 12:48:16;;;;;;;12.33;9.70;;;;;;;;;;5051309;28;20517;-81
2021/01/11 12:50:42;;;;;;;11.50;10.30;;;;;;;;;;5051070;28;20504;-75
2021/01/11 12:53:08;;;;;;;10.63;9.20;;;;;;;;;;5050385;28;20428;-80
2021/01/11 12:55:34;;;;;;;9.27;8.20;;;;;;;;;;5050974;28;20485;-80
2021/01/11 12:58:00;;;;;;;10.30;7.97;;;;;;;;;;5050877;28;20419;-78
2021/01/11 13:00:26;;;;;;;11.17;8.47;;;;;;;;;;5050792;28;20832;-79
2021/01/11 13:05:56;;;;;;;11.70;8.70;;;;;;;;;;5051006;28;20824;-77
2021/01/11 13:08:22;;;;;;;10.05;8.30;;;;;;;;;;5049419;28;20241;-79
2021/01/11 13:10:48;;;;;;;10.27;7.60;;;;;;;;;;5051079;28;20168;-76
2021/01/11 13:13:14;;;;;;;15.57;10.00;;;;;;;;;;5049331;28;20940;-79
2021/01/11 13:15:40;;;;;;;10.80;8.47;;;;;;;;;;5050737;28;20477;-80
2021/01/11 13:21:09;;;;;;;12.55;8.43;;;;;;;;;;5050326;28;20431;-75
2021/01/11 13:23:35;;;;;;;9.70;7.70;;;;;;;;;;5050770;28;20178;-81
2021/01/11 13:26:01;;;;;;;12.90;9.70;;;;;;;;;;5050487;28;20706;-80
2021/01/11 13:28:29;;;;;;;10.43;8.17;;;;;;;;;;5050741;28;20426;-75
2021/01/11 13:30:55;;;;;;;12.32;8.18;;;;;;;;;;5050579;28;20479;-76
2021/01/11 13:36:26;;;;;;;12.07;8.50;;;;;;;;;;5050132;28;20497;-75
2021/01/11 13:38:52;;;;;;;11.68;8.70;;;;;;;;;;5051012;28;20647;-76
2021/01/11 13:41:18;;;;;;;11.40;9.30;;;;;;;;;;5050375;28;20204;-75
2021/01/11 13:43:44;;;;;;;12.32;8.75;;;;;;;;;;5050339;28;20165;-77
2021/01/11 13:46:11;;;;;;;10.05;7.38;;;;;;;;;;5050811;28;20200;-78
2021/01/11 13:51:40;;;;;;;11.80;8.43;;;;;;;;;;5052396;28;20191;-76
2021/01/11 13:54:06;;;;;;;12.20;8.30;;;;;;;;;;5053937;28;20168;-75
2021/01/11 13:56:33;;;;;;;12.80;8.82;;;;;;;;;;5054211;28;20218;-75
2021/01/11 13:59:02;;;;;;;13.93;8.20;;;;;;;;;;5054000;28;20589;-74
2021/01/11 14:01:28;;;;;;;12.10;8.65;;;;;;;;;;5054244;28;20172;-81
2021/01/11 14:06:57;;;;;;;11.30;7.95;;;;;;;;;;5054388;28;20440;-76
2021/01/11 14:09:23;;;;;;;11.63;8.48;;;;;;;;;;5053393;28;20575;-81
2021/01/11 14:11:49;;;;;;;12.70;9.13;;;;;;;;;;5054999;28;20179;-83
2021/01/11 14:14:16;;;;;;;13.82;9.15;;;;;;;;;;5055371;28;20755;-75
2021/01/11 14:16:42;;;;;;;10.82;8.05;;;;;;;;;;5054872;28;20242;-77
2021/01/11 14:22:11;;;;;;;11.60;7.25;;;;;;;;;;5054216;28;20560;-76
2021/01/11 14:24:38;;;;;;;17.20;9.25;;;;;;;;;;5053284;28;20178;-77
2021/01/11 14:27:05;;;;;;;11.45;7.72;;;;;;;;;;5053636;28;20648;-75
2021/01/11 14:29:32;;;;;;;11.05;8.13;;;;;;;;;;5053561;28;20180;-76
2021/01/11 14:31:58;;;;;;;26.48;9.73;;;;;;;;;;5050921;28;20166;-73
2021/01/11 14:37:27;;;;;;;10.40;7.95;;;;;;;;;;5053606;28;20804;-75
2021/01/11 14:39:53;;;;;;;12.40;8.50;;;;;;;;;;5054559;28;20263;-75
2021/01/11 14:42:19;;;;;;;13.90;8.98;;;;;;;;;;5053263;28;20458;-74
2021/01/11 14:44:45;;;;;;;12.70;8.52;;;;;;;;;;5053994;28;20168;-77
2021/01/11 14:47:11;;;;;;;11.70;8.25;;;;;;;;;;5053743;28;20232;-74
2021/01/11 14:49:37;;;;;;;13.20;7.93;;;;;;;;;;5053316;28;20618;-76
2021/01/11 14:52:04;;;;;;;12.27;8.43;;;;;;;;;;5052894;28;20426;-77
2021/01/11 14:54:33;;;;;;;11.87;8.40;;;;;;;;;;5053559;28;20225;-82
2021/01/11 14:57:00;;;;;;;14.57;7.80;;;;;;;;;;5051670;28;20659;-80
2021/01/11 14:59:26;;;;;;;11.73;8.02;;;;;;;;;;5053457;28;20171;-81
2021/01/11 15:01:52;;;;;;;11.85;8.10;;;;;;;;;;5053282;28;20228;-78
2021/01/11 15:07:22;;;;;;;12.55;8.60;;;;;;;;;;5052911;28;20213;-74
2021/01/11 15:09:48;;;;;;;11.00;7.73;;;;;;;;;;5052596;28;20172;-75
2021/01/11 15:12:18;;;;;;;14.05;9.20;;;;;;;;;;5052935;28;20431;-76
2021/01/11 15:14:44;;;;;;;11.55;9.30;;;;;;;;;;5052656;28;20253;-75
2021/01/11 15:17:10;;;;;;;14.38;8.35;;;;;;;;;;5052601;28;20685;-75
2021/01/11 15:22:39;;;;;;;13.48;8.48;;;;;;;;;;5052556;28;20408;-81
2021/01/11 15:25:05;;;;;;;10.80;8.00;;;;;;;;;;5052164;28;20251;-76
2021/01/11 15:27:31;;;;;;;13.05;8.38;;;;;;;;;;5052261;28;20777;-75
2021/01/11 15:29:57;;;;;;;14.45;9.48;;;;;;;;;;5052883;28;20551;-76
2021/01/11 15:32:23;;;;;;;10.63;8.30;;;;;;;;;;5052730;28;20179;-75
2021/01/11 15:37:53;;;;;;;15.85;9.80;;;;;;;;;;5052557;28;20259;-80
2021/01/11 15:40:19;;;;;;;15.07;9.95;;;;;;;;;;5052515;28;20191;-82
2021/01/11 15:42:54;;;;;;;14.13;9.17;;;;;;;;;;5052336;28;20172;-82
2021/01/11 15:45:20;;;;;;;12.80;9.23;;;;;;;;;;5052333;28;20896;-83
2021/01/11 15:47:46;;;;;;;19.27;10.75;;;;;;;;;;5052453;28;20168;-82
2021/01/11 15:50:12;;;;;;;21.57;12.20;;;;;;;;;;5052202;28;20590;-81
2021/01/11 15:52:45;;;;;;;18.15;11.23;;;;;;;;;;5051836;28;20410;-78
2021/01/11 15:55:11;;;;;;;18.40;10.70;;;;;;;;;;5051917;28;20256;-74
2021/01/11 15:57:38;;;;;;;15.23;10.75;;;;;;;;;;5051898;28;20493;-78
2021/01/11 16:00:08;;;;;;;18.08;10.85;;;;;;;;;;5051984;28;20175;-82
2021/01/11 16:02:37;;;;;;;18.80;11.60;;;;;;;;;;5051678;28;20310;-74
2021/01/11 16:08:07;;;;;;;20.92;11.38;;;;;;;;;;5051665;28;20231;-75
2021/01/11 16:10:33;;;;;;;14.77;11.30;;;;;;;;;;5051694;28;20183;-84
2021/01/11 16:12:59;;;;;;;13.90;10.10;;;;;;;;;;5051882;28;20425;-77
2021/01/11 16:15:25;;;;;;;15.83;9.47;;;;;;;;;;5051381;28;20543;-82
2021/01/11 16:17:51;;;;;;;12.40;9.10;;;;;;;;;;5051615;28;20429;-78
2021/01/11 16:23:20;;;;;;;19.55;11.80;;;;;;;;;;5051464;28;20210;-79
2021/01/11 16:25:46;;;;;;;18.27;11.00;;;;;;;;;;5051054;28;20245;-75
2021/01/11 16:28:12;;;;;;;20.00;11.80;;;;;;;;;;5051306;28;20445;-76
2021/01/11 16:30:38;;;;;;;20.08;12.52;;;;;;;;;;5051346;28;20433;-74
2021/01/11 16:33:04;;;;;;;18.00;11.52;;;;;;;;;;5051120;28;20171;-75